Goodman, Missouri
Current Conditions -  °F | °C
As of 11:35 AM on Monday 24 Nov 2014 (Local Time) from KGMJ Reporting Station
Clear Clear  
Wind Chill: 50°   Ceiling: Unl
Heat Index: 50°   Visibility: 10mi
Dew Point: 32°   Wind: 13mph
Humidity: 50%   Direction: 250°WSW
Pressure: 29.9"   Gusts: 18mph
Location:  36.74°N, 94.4°W
Report Text: KGMJ 241735Z AUTO 25011G16KT 10SM CLR 10/00 A2990 RMK AO2
Loading
Personal Weather Stations






























Interactive Weather Map New forecast layout! Learn more

10-Day Weather Forecast

Advertisements
Track Severe Weather on mobile